sensor_id;sensor_type;location;lat;lon;timestamp;P1;durP1;ratioP1;P2;durP2;ratioP2
24559;SDS011;12727;49.934;8.656;2022-07-06T00:02:07;4.47;;;1.67;;
24559;SDS011;12727;49.934;8.656;2022-07-06T00:04:33;3.35;;;1.73;;
24559;SDS011;12727;49.934;8.656;2022-07-06T00:06:59;3.55;;;1.55;;
24559;SDS011;12727;49.934;8.656;2022-07-06T00:09:24;4.13;;;1.80;;
24559;SDS011;12727;49.934;8.656;2022-07-06T00:11:50;3.42;;;1.63;;
24559;SDS011;12727;49.934;8.656;2022-07-06T00:14:15;3.08;;;1.48;;
24559;SDS011;12727;49.934;8.656;2022-07-06T00:16:41;3.97;;;1.60;;
24559;SDS011;12727;49.934;8.656;2022-07-06T00:19:07;5.72;;;2.00;;
24559;SDS011;12727;49.934;8.656;2022-07-06T00:21:32;4.82;;;1.92;;
24559;SDS011;12727;49.934;8.656;2022-07-06T00:23:58;3.72;;;1.85;;
24559;SDS011;12727;49.934;8.656;2022-07-06T00:26:23;4.32;;;1.85;;
24559;SDS011;12727;49.934;8.656;2022-07-06T00:28:49;4.88;;;1.60;;
24559;SDS011;12727;49.934;8.656;2022-07-06T00:31:14;3.78;;;1.83;;
24559;SDS011;12727;49.934;8.656;2022-07-06T00:33:40;5.15;;;1.88;;
24559;SDS011;12727;49.934;8.656;2022-07-06T00:36:05;4.60;;;2.05;;
24559;SDS011;12727;49.934;8.656;2022-07-06T00:38:31;5.18;;;2.20;;
24559;SDS011;12727;49.934;8.656;2022-07-06T00:40:57;6.45;;;2.13;;
24559;SDS011;12727;49.934;8.656;2022-07-06T00:43:22;3.15;;;2.20;;
24559;SDS011;12727;49.934;8.656;2022-07-06T00:45:48;8.73;;;2.20;;
24559;SDS011;12727;49.934;8.656;2022-07-06T00:48:14;5.03;;;1.98;;
24559;SDS011;12727;49.934;8.656;2022-07-06T00:50:39;4.30;;;1.95;;
24559;SDS011;12727;49.934;8.656;2022-07-06T00:53:05;4.68;;;1.95;;
24559;SDS011;12727;49.934;8.656;2022-07-06T00:55:33;4.47;;;2.00;;
24559;SDS011;12727;49.934;8.656;2022-07-06T00:58:03;4.95;;;1.90;;
24559;SDS011;12727;49.934;8.656;2022-07-06T01:00:29;5.57;;;2.03;;
24559;SDS011;12727;49.934;8.656;2022-07-06T01:02:55;3.63;;;2.22;;
24559;SDS011;12727;49.934;8.656;2022-07-06T01:05:21;4.28;;;2.50;;
24559;SDS011;12727;49.934;8.656;2022-07-06T01:07:47;5.30;;;2.42;;
24559;SDS011;12727;49.934;8.656;2022-07-06T01:10:15;3.67;;;2.20;;
24559;SDS011;12727;49.934;8.656;2022-07-06T01:12:43;3.53;;;2.22;;
24559;SDS011;12727;49.934;8.656;2022-07-06T01:15:10;4.18;;;2.40;;
24559;SDS011;12727;49.934;8.656;2022-07-06T01:17:41;6.10;;;2.50;;
24559;SDS011;12727;49.934;8.656;2022-07-06T01:20:11;3.97;;;2.38;;
24559;SDS011;12727;49.934;8.656;2022-07-06T01:22:38;5.75;;;2.50;;
24559;SDS011;12727;49.934;8.656;2022-07-06T01:25:05;6.97;;;2.50;;
24559;SDS011;12727;49.934;8.656;2022-07-06T01:27:32;8.15;;;2.63;;
24559;SDS011;12727;49.934;8.656;2022-07-06T01:30:01;6.03;;;2.85;;
24559;SDS011;12727;49.934;8.656;2022-07-06T01:32:27;6.03;;;2.95;;
24559;SDS011;12727;49.934;8.656;2022-07-06T01:34:53;5.80;;;2.83;;
24559;SDS011;12727;49.934;8.656;2022-07-06T01:37:18;4.45;;;2.40;;
24559;SDS011;12727;49.934;8.656;2022-07-06T01:39:44;4.35;;;2.88;;
24559;SDS011;12727;49.934;8.656;2022-07-06T01:42:10;6.72;;;2.83;;
24559;SDS011;12727;49.934;8.656;2022-07-06T01:44:35;6.40;;;2.50;;
24559;SDS011;12727;49.934;8.656;2022-07-06T01:47:01;4.78;;;2.80;;
24559;SDS011;12727;49.934;8.656;2022-07-06T01:49:26;4.07;;;2.60;;
24559;SDS011;12727;49.934;8.656;2022-07-06T01:51:52;5.53;;;2.83;;
24559;SDS011;12727;49.934;8.656;2022-07-06T01:54:17;6.20;;;2.65;;
24559;SDS011;12727;49.934;8.656;2022-07-06T01:56:43;3.83;;;3.03;;
24559;SDS011;12727;49.934;8.656;2022-07-06T01:59:09;3.40;;;2.40;;
24559;SDS011;12727;49.934;8.656;2022-07-06T02:01:34;3.47;;;1.92;;
24559;SDS011;12727;49.934;8.656;2022-07-06T02:04:00;5.10;;;2.55;;
24559;SDS011;12727;49.934;8.656;2022-07-06T02:06:26;5.72;;;2.65;;
24559;SDS011;12727;49.934;8.656;2022-07-06T02:08:51;3.72;;;2.30;;
24559;SDS011;12727;49.934;8.656;2022-07-06T02:11:19;5.40;;;2.58;;
24559;SDS011;12727;49.934;8.656;2022-07-06T02:13:44;8.52;;;2.78;;
24559;SDS011;12727;49.934;8.656;2022-07-06T02:16:10;3.22;;;2.80;;
24559;SDS011;12727;49.934;8.656;2022-07-06T02:18:36;3.28;;;2.55;;
24559;SDS011;12727;49.934;8.656;2022-07-06T02:21:02;4.10;;;2.38;;
24559;SDS011;12727;49.934;8.656;2022-07-06T02:23:29;3.33;;;2.47;;
24559;SDS011;12727;49.934;8.656;2022-07-06T02:25:55;4.80;;;2.47;;
24559;SDS011;12727;49.934;8.656;2022-07-06T02:28:20;5.38;;;2.90;;
24559;SDS011;12727;49.934;8.656;2022-07-06T02:30:46;4.03;;;2.72;;
24559;SDS011;12727;49.934;8.656;2022-07-06T02:33:11;2.78;;;2.47;;
24559;SDS011;12727;49.934;8.656;2022-07-06T02:35:37;7.10;;;3.25;;
24559;SDS011;12727;49.934;8.656;2022-07-06T02:38:07;5.63;;;3.20;;
24559;SDS011;12727;49.934;8.656;2022-07-06T02:40:32;8.20;;;3.25;;
24559;SDS011;12727;49.934;8.656;2022-07-06T02:42:58;4.40;;;2.78;;
24559;SDS011;12727;49.934;8.656;2022-07-06T02:45:24;5.15;;;2.80;;
24559;SDS011;12727;49.934;8.656;2022-07-06T02:47:49;4.13;;;2.60;;
24559;SDS011;12727;49.934;8.656;2022-07-06T02:50:16;2.75;;;2.33;;
24559;SDS011;12727;49.934;8.656;2022-07-06T02:52:42;4.47;;;2.53;;
24559;SDS011;12727;49.934;8.656;2022-07-06T02:55:07;3.45;;;2.90;;
24559;SDS011;12727;49.934;8.656;2022-07-06T02:57:33;4.00;;;2.75;;
24559;SDS011;12727;49.934;8.656;2022-07-06T02:59:59;6.28;;;2.72;;
24559;SDS011;12727;49.934;8.656;2022-07-06T03:02:24;3.47;;;2.40;;
24559;SDS011;12727;49.934;8.656;2022-07-06T03:04:50;4.60;;;2.60;;
24559;SDS011;12727;49.934;8.656;2022-07-06T03:07:15;5.30;;;2.50;;
24559;SDS011;12727;49.934;8.656;2022-07-06T03:09:41;5.03;;;2.65;;
24559;SDS011;12727;49.934;8.656;2022-07-06T03:12:07;6.10;;;2.20;;
24559;SDS011;12727;49.934;8.656;2022-07-06T03:14:33;3.65;;;2.30;;
24559;SDS011;12727;49.934;8.656;2022-07-06T03:16:58;3.22;;;2.30;;
24559;SDS011;12727;49.934;8.656;2022-07-06T03:19:24;5.40;;;2.58;;
24559;SDS011;12727;49.934;8.656;2022-07-06T03:21:49;4.80;;;2.40;;
24559;SDS011;12727;49.934;8.656;2022-07-06T03:24:15;4.80;;;2.30;;
24559;SDS011;12727;49.934;8.656;2022-07-06T03:26:41;7.13;;;2.35;;
24559;SDS011;12727;49.934;8.656;2022-07-06T03:29:06;6.18;;;2.47;;
24559;SDS011;12727;49.934;8.656;2022-07-06T03:31:32;4.18;;;2.58;;
24559;SDS011;12727;49.934;8.656;2022-07-06T03:33:57;4.93;;;2.40;;
24559;SDS011;12727;49.934;8.656;2022-07-06T03:36:23;5.80;;;2.00;;
24559;SDS011;12727;49.934;8.656;2022-07-06T03:38:49;4.90;;;2.00;;
24559;SDS011;12727;49.934;8.656;2022-07-06T03:41:14;3.03;;;1.90;;
24559;SDS011;12727;49.934;8.656;2022-07-06T03:43:40;5.15;;;2.10;;
24559;SDS011;12727;49.934;8.656;2022-07-06T03:46:05;2.75;;;1.90;;
24559;SDS011;12727;49.934;8.656;2022-07-06T03:48:31;6.28;;;2.03;;
24559;SDS011;12727;49.934;8.656;2022-07-06T03:50:57;3.80;;;1.90;;
24559;SDS011;12727;49.934;8.656;2022-07-06T03:53:22;4.28;;;1.85;;
24559;SDS011;12727;49.934;8.656;2022-07-06T03:55:48;6.65;;;2.20;;
24559;SDS011;12727;49.934;8.656;2022-07-06T04:00:58;5.75;;;1.85;;
24559;SDS011;12727;49.934;8.656;2022-07-06T04:03:23;3.72;;;1.88;;
24559;SDS011;12727;49.934;8.656;2022-07-06T04:05:49;3.97;;;1.63;;
24559;SDS011;12727;49.934;8.656;2022-07-06T04:08:14;4.60;;;1.98;;
24559;SDS011;12727;49.934;8.656;2022-07-06T04:10:40;3.47;;;1.77;;
24559;SDS011;12727;49.934;8.656;2022-07-06T04:13:06;7.38;;;1.80;;
24559;SDS011;12727;49.934;8.656;2022-07-06T04:15:31;4.90;;;1.55;;
24559;SDS011;12727;49.934;8.656;2022-07-06T04:17:57;4.55;;;1.80;;
24559;SDS011;12727;49.934;8.656;2022-07-06T04:20:23;2.30;;;1.90;;
24559;SDS011;12727;49.934;8.656;2022-07-06T04:22:50;3.42;;;1.63;;
24559;SDS011;12727;49.934;8.656;2022-07-06T04:25:16;2.72;;;1.73;;
24559;SDS011;12727;49.934;8.656;2022-07-06T04:27:42;7.07;;;2.10;;
24559;SDS011;12727;49.934;8.656;2022-07-06T04:30:08;3.03;;;1.83;;
24559;SDS011;12727;49.934;8.656;2022-07-06T04:32:34;5.22;;;1.92;;
24559;SDS011;12727;49.934;8.656;2022-07-06T04:35:00;4.05;;;2.20;;
24559;SDS011;12727;49.934;8.656;2022-07-06T04:37:27;6.35;;;1.95;;
24559;SDS011;12727;49.934;8.656;2022-07-06T04:39:52;4.63;;;1.67;;
24559;SDS011;12727;49.934;8.656;2022-07-06T04:42:18;4.45;;;2.03;;
24559;SDS011;12727;49.934;8.656;2022-07-06T04:44:44;4.65;;;2.10;;
24559;SDS011;12727;49.934;8.656;2022-07-06T04:47:10;5.60;;;2.10;;
24559;SDS011;12727;49.934;8.656;2022-07-06T04:49:36;6.70;;;2.10;;
24559;SDS011;12727;49.934;8.656;2022-07-06T04:52:02;5.10;;;2.10;;
24559;SDS011;12727;49.934;8.656;2022-07-06T04:54:28;5.45;;;2.03;;
24559;SDS011;12727;49.934;8.656;2022-07-06T04:56:54;6.43;;;1.80;;
24559;SDS011;12727;49.934;8.656;2022-07-06T04:59:19;5.45;;;2.00;;
24559;SDS011;12727;49.934;8.656;2022-07-06T05:01:45;4.00;;;1.98;;
24559;SDS011;12727;49.934;8.656;2022-07-06T05:04:11;5.72;;;1.85;;
24559;SDS011;12727;49.934;8.656;2022-07-06T05:06:36;3.15;;;2.25;;
24559;SDS011;12727;49.934;8.656;2022-07-06T05:09:02;7.55;;;2.70;;
24559;SDS011;12727;49.934;8.656;2022-07-06T05:11:28;4.80;;;2.40;;
24559;SDS011;12727;49.934;8.656;2022-07-06T05:13:53;8.93;;;2.42;;
24559;SDS011;12727;49.934;8.656;2022-07-06T05:16:19;4.10;;;2.88;;
24559;SDS011;12727;49.934;8.656;2022-07-06T05:18:45;6.28;;;2.80;;
24559;SDS011;12727;49.934;8.656;2022-07-06T05:21:11;4.93;;;2.53;;
24559;SDS011;12727;49.934;8.656;2022-07-06T05:23:37;4.85;;;2.65;;
24559;SDS011;12727;49.934;8.656;2022-07-06T05:26:02;5.07;;;2.78;;
24559;SDS011;12727;49.934;8.656;2022-07-06T05:28:28;6.82;;;2.47;;
24559;SDS011;12727;49.934;8.656;2022-07-06T05:30:54;5.38;;;2.83;;
24559;SDS011;12727;49.934;8.656;2022-07-06T05:33:19;4.47;;;2.63;;
24559;SDS011;12727;49.934;8.656;2022-07-06T05:35:45;9.02;;;2.60;;
24559;SDS011;12727;49.934;8.656;2022-07-06T05:38:10;7.50;;;2.40;;
24559;SDS011;12727;49.934;8.656;2022-07-06T05:40:36;5.68;;;2.80;;
24559;SDS011;12727;49.934;8.656;2022-07-06T05:43:02;5.35;;;2.63;;
24559;SDS011;12727;49.934;8.656;2022-07-06T05:45:28;4.95;;;2.50;;
24559;SDS011;12727;49.934;8.656;2022-07-06T05:47:53;5.90;;;2.70;;
24559;SDS011;12727;49.934;8.656;2022-07-06T05:53:03;6.00;;;2.60;;
24559;SDS011;12727;49.934;8.656;2022-07-06T05:55:30;8.88;;;2.92;;
24559;SDS011;12727;49.934;8.656;2022-07-06T05:57:56;4.18;;;2.55;;
24559;SDS011;12727;49.934;8.656;2022-07-06T06:00:22;5.88;;;2.67;;
24559;SDS011;12727;49.934;8.656;2022-07-06T06:02:48;5.55;;;2.67;;
24559;SDS011;12727;49.934;8.656;2022-07-06T06:05:14;6.32;;;2.90;;
24559;SDS011;12727;49.934;8.656;2022-07-06T06:07:40;5.70;;;2.50;;
24559;SDS011;12727;49.934;8.656;2022-07-06T06:10:10;8.75;;;3.00;;
24559;SDS011;12727;49.934;8.656;2022-07-06T06:12:37;7.90;;;2.70;;
24559;SDS011;12727;49.934;8.656;2022-07-06T06:15:03;9.23;;;3.30;;
24559;SDS011;12727;49.934;8.656;2022-07-06T06:17:30;6.15;;;2.90;;
24559;SDS011;12727;49.934;8.656;2022-07-06T06:19:56;5.38;;;2.65;;
24559;SDS011;12727;49.934;8.656;2022-07-06T06:22:22;7.15;;;3.08;;
24559;SDS011;12727;49.934;8.656;2022-07-06T06:24:48;5.30;;;2.90;;
24559;SDS011;12727;49.934;8.656;2022-07-06T06:27:13;5.20;;;2.65;;
24559;SDS011;12727;49.934;8.656;2022-07-06T06:29:39;5.72;;;2.80;;
24559;SDS011;12727;49.934;8.656;2022-07-06T06:32:07;5.35;;;2.70;;
24559;SDS011;12727;49.934;8.656;2022-07-06T06:34:33;7.22;;;2.47;;
24559;SDS011;12727;49.934;8.656;2022-07-06T06:36:59;6.40;;;2.83;;
24559;SDS011;12727;49.934;8.656;2022-07-06T06:39:24;7.80;;;2.42;;
24559;SDS011;12727;49.934;8.656;2022-07-06T06:41:50;4.05;;;2.08;;
24559;SDS011;12727;49.934;8.656;2022-07-06T06:44:16;7.82;;;2.83;;
24559;SDS011;12727;49.934;8.656;2022-07-06T06:46:43;6.82;;;2.55;;
24559;SDS011;12727;49.934;8.656;2022-07-06T06:49:09;4.32;;;2.75;;
24559;SDS011;12727;49.934;8.656;2022-07-06T06:51:35;7.05;;;2.50;;
24559;SDS011;12727;49.934;8.656;2022-07-06T06:54:02;5.63;;;2.53;;
24559;SDS011;12727;49.934;8.656;2022-07-06T06:56:28;5.35;;;2.70;;
24559;SDS011;12727;49.934;8.656;2022-07-06T06:58:54;9.90;;;2.85;;
24559;SDS011;12727;49.934;8.656;2022-07-06T07:01:19;6.10;;;2.60;;
24559;SDS011;12727;49.934;8.656;2022-07-06T07:03:45;4.15;;;2.45;;
24559;SDS011;12727;49.934;8.656;2022-07-06T07:06:11;5.72;;;2.75;;
24559;SDS011;12727;49.934;8.656;2022-07-06T07:08:36;4.95;;;2.30;;
24559;SDS011;12727;49.934;8.656;2022-07-06T07:11:02;4.05;;;2.20;;
24559;SDS011;12727;49.934;8.656;2022-07-06T07:13:27;4.85;;;2.60;;
24559;SDS011;12727;49.934;8.656;2022-07-06T07:15:53;6.45;;;2.78;;
24559;SDS011;12727;49.934;8.656;2022-07-06T07:18:18;5.68;;;2.67;;
24559;SDS011;12727;49.934;8.656;2022-07-06T07:20:44;6.40;;;2.80;;
24559;SDS011;12727;49.934;8.656;2022-07-06T07:23:09;6.75;;;3.08;;
24559;SDS011;12727;49.934;8.656;2022-07-06T07:25:35;4.18;;;2.50;;
24559;SDS011;12727;49.934;8.656;2022-07-06T07:28:03;5.97;;;2.80;;
24559;SDS011;12727;49.934;8.656;2022-07-06T07:30:29;8.30;;;3.05;;
24559;SDS011;12727;49.934;8.656;2022-07-06T07:32:54;6.55;;;2.78;;
24559;SDS011;12727;49.934;8.656;2022-07-06T07:35:21;7.38;;;3.03;;
24559;SDS011;12727;49.934;8.656;2022-07-06T07:37:47;12.32;;;2.80;;
24559;SDS011;12727;49.934;8.656;2022-07-06T07:40:12;5.82;;;2.83;;
24559;SDS011;12727;49.934;8.656;2022-07-06T07:42:38;6.38;;;2.78;;
24559;SDS011;12727;49.934;8.656;2022-07-06T07:45:05;3.92;;;2.88;;
24559;SDS011;12727;49.934;8.656;2022-07-06T07:47:32;7.50;;;2.88;;
24559;SDS011;12727;49.934;8.656;2022-07-06T07:49:58;3.63;;;2.55;;
24559;SDS011;12727;49.934;8.656;2022-07-06T07:52:24;9.30;;;2.60;;
24559;SDS011;12727;49.934;8.656;2022-07-06T07:54:49;8.82;;;3.13;;
24559;SDS011;12727;49.934;8.656;2022-07-06T07:57:15;8.05;;;3.03;;
24559;SDS011;12727;49.934;8.656;2022-07-06T07:59:40;7.70;;;2.95;;
24559;SDS011;12727;49.934;8.656;2022-07-06T08:02:07;5.47;;;2.55;;
24559;SDS011;12727;49.934;8.656;2022-07-06T08:04:33;4.78;;;2.67;;
24559;SDS011;12727;49.934;8.656;2022-07-06T08:06:58;6.03;;;3.17;;
24559;SDS011;12727;49.934;8.656;2022-07-06T08:09:24;6.43;;;2.88;;
24559;SDS011;12727;49.934;8.656;2022-07-06T08:11:50;7.68;;;2.88;;
24559;SDS011;12727;49.934;8.656;2022-07-06T08:14:15;5.35;;;2.38;;
24559;SDS011;12727;49.934;8.656;2022-07-06T08:16:41;4.82;;;2.83;;
24559;SDS011;12727;49.934;8.656;2022-07-06T08:19:07;5.82;;;2.80;;
24559;SDS011;12727;49.934;8.656;2022-07-06T08:21:34;6.35;;;2.90;;
24559;SDS011;12727;49.934;8.656;2022-07-06T08:24:00;6.60;;;3.42;;
24559;SDS011;12727;49.934;8.656;2022-07-06T08:26:26;5.85;;;3.22;;
24559;SDS011;12727;49.934;8.656;2022-07-06T08:28:52;3.72;;;2.90;;
24559;SDS011;12727;49.934;8.656;2022-07-06T08:31:18;4.57;;;3.08;;
24559;SDS011;12727;49.934;8.656;2022-07-06T08:33:44;4.68;;;2.90;;
24559;SDS011;12727;49.934;8.656;2022-07-06T08:36:10;6.10;;;3.30;;
24559;SDS011;12727;49.934;8.656;2022-07-06T08:38:35;3.88;;;2.80;;
24559;SDS011;12727;49.934;8.656;2022-07-06T08:41:01;5.47;;;2.65;;
24559;SDS011;12727;49.934;8.656;2022-07-06T08:43:30;5.97;;;2.40;;
24559;SDS011;12727;49.934;8.656;2022-07-06T08:45:57;7.07;;;3.10;;
24559;SDS011;12727;49.934;8.656;2022-07-06T08:48:23;5.13;;;2.58;;
24559;SDS011;12727;49.934;8.656;2022-07-06T08:50:50;6.13;;;2.67;;
24559;SDS011;12727;49.934;8.656;2022-07-06T08:53:18;5.82;;;2.28;;
24559;SDS011;12727;49.934;8.656;2022-07-06T08:55:45;5.07;;;2.70;;
24559;SDS011;12727;49.934;8.656;2022-07-06T08:58:13;3.42;;;2.30;;
24559;SDS011;12727;49.934;8.656;2022-07-06T09:00:38;3.50;;;2.13;;
24559;SDS011;12727;49.934;8.656;2022-07-06T09:03:05;3.97;;;2.35;;
24559;SDS011;12727;49.934;8.656;2022-07-06T09:05:32;5.80;;;2.53;;
24559;SDS011;12727;49.934;8.656;2022-07-06T09:07:58;5.68;;;2.63;;
24559;SDS011;12727;49.934;8.656;2022-07-06T09:10:24;7.55;;;2.40;;
24559;SDS011;12727;49.934;8.656;2022-07-06T09:12:51;4.47;;;2.38;;
24559;SDS011;12727;49.934;8.656;2022-07-06T09:15:17;5.35;;;2.20;;
24559;SDS011;12727;49.934;8.656;2022-07-06T09:17:43;5.93;;;2.15;;
24559;SDS011;12727;49.934;8.656;2022-07-06T09:20:09;6.45;;;2.45;;
24559;SDS011;12727;49.934;8.656;2022-07-06T09:22:36;4.75;;;2.22;;
24559;SDS011;12727;49.934;8.656;2022-07-06T09:27:46;3.70;;;2.53;;
24559;SDS011;12727;49.934;8.656;2022-07-06T09:30:14;8.18;;;2.72;;
24559;SDS011;12727;49.934;8.656;2022-07-06T09:32:41;6.05;;;2.83;;
24559;SDS011;12727;49.934;8.656;2022-07-06T09:35:24;3.72;;;2.40;;
24559;SDS011;12727;49.934;8.656;2022-07-06T09:38:07;6.43;;;2.20;;
24559;SDS011;12727;49.934;8.656;2022-07-06T09:40:34;4.90;;;2.33;;
24559;SDS011;12727;49.934;8.656;2022-07-06T09:43:12;4.15;;;1.92;;
24559;SDS011;12727;49.934;8.656;2022-07-06T09:45:46;3.78;;;2.17;;
24559;SDS011;12727;49.934;8.656;2022-07-06T09:48:19;4.25;;;2.30;;
24559;SDS011;12727;49.934;8.656;2022-07-06T09:50:52;5.13;;;2.53;;
24559;SDS011;12727;49.934;8.656;2022-07-06T09:53:27;5.90;;;2.22;;
24559;SDS011;12727;49.934;8.656;2022-07-06T09:55:54;4.85;;;2.05;;
24559;SDS011;12727;49.934;8.656;2022-07-06T09:58:23;4.75;;;2.42;;
24559;SDS011;12727;49.934;8.656;2022-07-06T10:00:49;5.70;;;2.03;;
24559;SDS011;12727;49.934;8.656;2022-07-06T10:03:16;3.80;;;1.92;;
24559;SDS011;12727;49.934;8.656;2022-07-06T10:05:46;4.97;;;1.70;;
24559;SDS011;12727;49.934;8.656;2022-07-06T10:08:13;2.72;;;1.38;;
24559;SDS011;12727;49.934;8.656;2022-07-06T10:10:40;3.58;;;1.40;;
24559;SDS011;12727;49.934;8.656;2022-07-06T10:13:07;3.67;;;1.67;;
24559;SDS011;12727;49.934;8.656;2022-07-06T10:15:35;4.13;;;1.48;;
24559;SDS011;12727;49.934;8.656;2022-07-06T10:18:03;6.60;;;1.40;;
24559;SDS011;12727;49.934;8.656;2022-07-06T10:20:31;5.43;;;1.30;;
24559;SDS011;12727;49.934;8.656;2022-07-06T10:22:59;5.60;;;1.65;;
24559;SDS011;12727;49.934;8.656;2022-07-06T10:25:26;3.70;;;1.30;;
24559;SDS011;12727;49.934;8.656;2022-07-06T10:27:52;3.10;;;1.38;;
24559;SDS011;12727;49.934;8.656;2022-07-06T10:30:19;6.47;;;1.33;;
24559;SDS011;12727;49.934;8.656;2022-07-06T10:32:48;6.95;;;1.20;;
24559;SDS011;12727;49.934;8.656;2022-07-06T10:35:15;2.38;;;1.17;;
24559;SDS011;12727;49.934;8.656;2022-07-06T10:37:43;2.50;;;1.10;;
24559;SDS011;12727;49.934;8.656;2022-07-06T10:40:10;4.40;;;1.10;;
24559;SDS011;12727;49.934;8.656;2022-07-06T10:42:58;5.00;;;1.23;;
24559;SDS011;12727;49.934;8.656;2022-07-06T10:50:41;3.47;;;1.00;;
24559;SDS011;12727;49.934;8.656;2022-07-06T10:53:13;5.30;;;1.40;;
24559;SDS011;12727;49.934;8.656;2022-07-06T10:55:40;4.70;;;1.20;;
24559;SDS011;12727;49.934;8.656;2022-07-06T10:58:09;3.72;;;1.20;;
24559;SDS011;12727;49.934;8.656;2022-07-06T11:00:52;7.85;;;1.38;;
24559;SDS011;12727;49.934;8.656;2022-07-06T11:06:05;2.60;;;0.93;;
24559;SDS011;12727;49.934;8.656;2022-07-06T11:11:12;2.95;;;1.00;;
24559;SDS011;12727;49.934;8.656;2022-07-06T11:19:17;4.45;;;0.80;;
24559;SDS011;12727;49.934;8.656;2022-07-06T11:21:49;2.55;;;1.13;;
24559;SDS011;12727;49.934;8.656;2022-07-06T11:24:21;1.92;;;0.90;;
24559;SDS011;12727;49.934;8.656;2022-07-06T11:26:48;3.38;;;0.98;;
24559;SDS011;12727;49.934;8.656;2022-07-06T11:29:15;5.50;;;1.20;;
24559;SDS011;12727;49.934;8.656;2022-07-06T11:31:48;2.38;;;0.80;;
24559;SDS011;12727;49.934;8.656;2022-07-06T11:34:19;2.80;;;1.00;;
24559;SDS011;12727;49.934;8.656;2022-07-06T11:36:56;4.28;;;0.95;;
24559;SDS011;12727;49.934;8.656;2022-07-06T11:39:25;3.17;;;0.88;;
24559;SDS011;12727;49.934;8.656;2022-07-06T11:41:53;4.60;;;1.10;;
24559;SDS011;12727;49.934;8.656;2022-07-06T11:44:20;2.65;;;1.10;;
24559;SDS011;12727;49.934;8.656;2022-07-06T11:46:46;3.85;;;1.13;;
24559;SDS011;12727;49.934;8.656;2022-07-06T11:49:12;5.85;;;1.40;;
24559;SDS011;12727;49.934;8.656;2022-07-06T11:51:38;1.92;;;1.00;;
24559;SDS011;12727;49.934;8.656;2022-07-06T11:54:23;9.43;;;1.33;;
24559;SDS011;12727;49.934;8.656;2022-07-06T11:59:26;1.92;;;1.10;;
24559;SDS011;12727;49.934;8.656;2022-07-06T12:04:30;3.40;;;1.20;;
24559;SDS011;12727;49.934;8.656;2022-07-06T12:07:04;7.03;;;1.33;;
24559;SDS011;12727;49.934;8.656;2022-07-06T12:09:34;4.72;;;1.60;;
24559;SDS011;12727;49.934;8.656;2022-07-06T12:12:02;2.80;;;1.35;;
24559;SDS011;12727;49.934;8.656;2022-07-06T12:14:29;3.85;;;1.35;;
24559;SDS011;12727;49.934;8.656;2022-07-06T12:16:55;2.25;;;1.10;;
24559;SDS011;12727;49.934;8.656;2022-07-06T12:19:21;2.40;;;1.17;;
24559;SDS011;12727;49.934;8.656;2022-07-06T12:21:49;3.80;;;1.20;;
24559;SDS011;12727;49.934;8.656;2022-07-06T12:24:19;1.63;;;0.90;;
24559;SDS011;12727;49.934;8.656;2022-07-06T12:26:50;2.83;;;1.10;;
24559;SDS011;12727;49.934;8.656;2022-07-06T12:29:17;1.80;;;1.20;;
24559;SDS011;12727;49.934;8.656;2022-07-06T12:31:47;1.48;;;0.98;;
24559;SDS011;12727;49.934;8.656;2022-07-06T12:34:19;1.80;;;1.10;;
24559;SDS011;12727;49.934;8.656;2022-07-06T12:36:46;2.75;;;1.38;;
24559;SDS011;12727;49.934;8.656;2022-07-06T12:39:13;2.33;;;1.13;;
24559;SDS011;12727;49.934;8.656;2022-07-06T12:41:44;2.00;;;1.08;;
24559;SDS011;12727;49.934;8.656;2022-07-06T12:44:09;2.08;;;1.10;;
24559;SDS011;12727;49.934;8.656;2022-07-06T12:46:36;4.00;;;1.10;;
24559;SDS011;12727;49.934;8.656;2022-07-06T12:49:10;3.05;;;0.90;;
24559;SDS011;12727;49.934;8.656;2022-07-06T12:54:20;3.92;;;0.90;;
24559;SDS011;12727;49.934;8.656;2022-07-06T12:59:22;3.03;;;0.98;;
24559;SDS011;12727;49.934;8.656;2022-07-06T13:01:48;3.45;;;0.95;;
24559;SDS011;12727;49.934;8.656;2022-07-06T13:04:15;2.63;;;1.08;;
24559;SDS011;12727;49.934;8.656;2022-07-06T13:06:41;0.77;;;0.77;;
24559;SDS011;12727;49.934;8.656;2022-07-06T13:09:07;1.13;;;0.75;;
24559;SDS011;12727;49.934;8.656;2022-07-06T13:11:32;2.47;;;0.75;;
24559;SDS011;12727;49.934;8.656;2022-07-06T13:13:58;1.80;;;0.80;;
24559;SDS011;12727;49.934;8.656;2022-07-06T13:16:24;2.33;;;0.80;;
24559;SDS011;12727;49.934;8.656;2022-07-06T13:18:55;1.00;;;0.60;;
24559;SDS011;12727;49.934;8.656;2022-07-06T13:21:21;3.63;;;1.15;;
24559;SDS011;12727;49.934;8.656;2022-07-06T13:23:46;3.45;;;0.88;;
24559;SDS011;12727;49.934;8.656;2022-07-06T13:26:12;2.72;;;1.00;;
24559;SDS011;12727;49.934;8.656;2022-07-06T13:28:38;2.28;;;0.80;;
24559;SDS011;12727;49.934;8.656;2022-07-06T13:31:04;2.45;;;0.90;;
24559;SDS011;12727;49.934;8.656;2022-07-06T13:33:29;2.28;;;1.00;;
24559;SDS011;12727;49.934;8.656;2022-07-06T13:35:55;3.55;;;0.88;;
24559;SDS011;12727;49.934;8.656;2022-07-06T13:38:21;3.90;;;0.95;;
24559;SDS011;12727;49.934;8.656;2022-07-06T13:40:46;5.80;;;1.02;;
24559;SDS011;12727;49.934;8.656;2022-07-06T13:43:12;1.70;;;0.75;;
24559;SDS011;12727;49.934;8.656;2022-07-06T13:45:37;3.03;;;0.77;;
24559;SDS011;12727;49.934;8.656;2022-07-06T13:48:03;1.70;;;0.80;;
24559;SDS011;12727;49.934;8.656;2022-07-06T13:50:29;1.98;;;0.90;;
24559;SDS011;12727;49.934;8.656;2022-07-06T13:52:57;2.25;;;0.75;;
24559;SDS011;12727;49.934;8.656;2022-07-06T13:55:23;2.25;;;0.70;;
24559;SDS011;12727;49.934;8.656;2022-07-06T13:57:49;1.92;;;0.70;;
24559;SDS011;12727;49.934;8.656;2022-07-06T14:00:14;2.58;;;1.00;;
24559;SDS011;12727;49.934;8.656;2022-07-06T14:02:43;2.53;;;0.95;;
24559;SDS011;12727;49.934;8.656;2022-07-06T14:05:10;2.75;;;1.10;;
24559;SDS011;12727;49.934;8.656;2022-07-06T14:07:35;2.47;;;0.85;;
24559;SDS011;12727;49.934;8.656;2022-07-06T14:10:01;2.25;;;0.93;;
24559;SDS011;12727;49.934;8.656;2022-07-06T14:12:27;3.80;;;0.98;;
24559;SDS011;12727;49.934;8.656;2022-07-06T14:14:53;3.90;;;0.88;;
24559;SDS011;12727;49.934;8.656;2022-07-06T14:17:19;5.28;;;1.10;;
24559;SDS011;12727;49.934;8.656;2022-07-06T14:19:44;2.28;;;1.05;;
24559;SDS011;12727;49.934;8.656;2022-07-06T14:22:10;2.50;;;1.10;;
24559;SDS011;12727;49.934;8.656;2022-07-06T14:24:35;3.15;;;1.13;;
24559;SDS011;12727;49.934;8.656;2022-07-06T14:27:01;1.67;;;0.98;;
24559;SDS011;12727;49.934;8.656;2022-07-06T14:29:27;2.45;;;0.98;;
24559;SDS011;12727;49.934;8.656;2022-07-06T14:31:52;4.32;;;1.05;;
24559;SDS011;12727;49.934;8.656;2022-07-06T14:34:18;3.85;;;1.08;;
24559;SDS011;12727;49.934;8.656;2022-07-06T14:36:44;2.65;;;1.13;;
24559;SDS011;12727;49.934;8.656;2022-07-06T14:39:09;2.70;;;1.13;;
24559;SDS011;12727;49.934;8.656;2022-07-06T14:41:37;3.45;;;1.10;;
24559;SDS011;12727;49.934;8.656;2022-07-06T14:44:03;2.40;;;0.90;;
24559;SDS011;12727;49.934;8.656;2022-07-06T14:46:29;2.22;;;1.20;;
24559;SDS011;12727;49.934;8.656;2022-07-06T14:48:55;4.25;;;1.02;;
24559;SDS011;12727;49.934;8.656;2022-07-06T14:51:21;2.95;;;1.08;;
24559;SDS011;12727;49.934;8.656;2022-07-06T14:53:47;4.13;;;1.38;;
24559;SDS011;12727;49.934;8.656;2022-07-06T14:56:13;2.65;;;1.10;;
24559;SDS011;12727;49.934;8.656;2022-07-06T14:58:38;2.10;;;0.80;;
24559;SDS011;12727;49.934;8.656;2022-07-06T15:01:04;2.53;;;1.00;;
24559;SDS011;12727;49.934;8.656;2022-07-06T15:03:29;3.00;;;1.25;;
24559;SDS011;12727;49.934;8.656;2022-07-06T15:05:55;2.30;;;0.93;;
24559;SDS011;12727;49.934;8.656;2022-07-06T15:08:21;4.72;;;1.30;;
24559;SDS011;12727;49.934;8.656;2022-07-06T15:10:46;2.90;;;0.90;;
24559;SDS011;12727;49.934;8.656;2022-07-06T15:13:13;3.80;;;1.00;;
24559;SDS011;12727;49.934;8.656;2022-07-06T15:15:39;2.15;;;0.95;;
24559;SDS011;12727;49.934;8.656;2022-07-06T15:18:04;3.70;;;0.98;;
24559;SDS011;12727;49.934;8.656;2022-07-06T15:20:30;2.70;;;1.13;;